Terminal Aerodrome Forecast
Issued by NWS Tampa Bay Area, FL

Home | Current Version | Previous Version | Text Only | Print | Product List | Glossary On
Versions: 1 2 3 4 5 6 7 8 9 10 11 12 13 14
000
FTUS42 KTBW 171700
TAFFMY
TAF
KFMY 171727Z 1718/1818 26008KT 5SM -RA VCTS SCT015CB BKN030 OVC080
      TEMPO 1718/1721 3SM RA BKN020
     FM172100 27008KT P6SM -RA SCT025 OVC070
      TEMPO 1721/1724 3SM RA BKN025
     FM180000 27005KT P6SM VCSH SCT025 BKN070 OVC250
     FM181000 VRB03KT P6SM VCSH SCT025 BKN100 OVC250=

USA.gov is the U.S. government's official web portal to all federal, state and local government web resources and services.